createdAt,value
2022-08-07T00:00:31.211Z,100487.91
2022-08-07T00:02:57.768Z,100498.56
2022-08-07T00:05:25.098Z,100486.47
2022-08-07T00:08:00.218Z,100492.66
2022-08-07T00:10:29.713Z,100490.81
2022-08-07T00:13:02.114Z,100489.13
2022-08-07T00:15:38.664Z,100482.81
2022-08-07T00:18:19.824Z,100488.72
2022-08-07T00:20:51.800Z,100489.69
2022-08-07T00:23:18.321Z,100485.06
2022-08-07T00:25:58.256Z,100484.88
2022-08-07T00:28:33.963Z,100478.97
2022-08-07T00:31:06.304Z,100479.59
2022-08-07T00:33:39.870Z,100472.47
2022-08-07T00:36:08.995Z,100471.81
2022-08-07T00:38:37.223Z,100471.84
2022-08-07T00:41:10.063Z,100478.56
2022-08-07T00:44:01.433Z,100465.09
2022-08-07T00:46:28.378Z,100464.06
2022-08-07T00:48:54.861Z,100470.41
2022-08-07T00:51:21.569Z,100462.28
2022-08-07T00:53:50.443Z,100460.78
2022-08-07T00:56:23.367Z,100460.34
2022-08-07T00:58:57.308Z,100457.16
2022-08-07T01:01:24.155Z,100452.22
2022-08-07T01:03:55.895Z,100448.31
2022-08-07T01:06:27.283Z,100454.34
2022-08-07T01:08:55.674Z,100451.41
2022-08-07T01:12:04.552Z,100452.31
2022-08-07T01:14:10.314Z,100445.72
2022-08-07T01:16:37.612Z,100447.69
2022-08-07T01:19:18.407Z,100443.50
2022-08-07T01:21:47.977Z,100444.53
2022-08-07T01:24:21.169Z,100440.75
2022-08-07T01:26:51.734Z,100435.00
2022-08-07T01:29:27.691Z,100428.81
2022-08-07T01:31:59.365Z,100434.38
2022-08-07T01:34:31.436Z,100428.78
2022-08-07T01:37:00.806Z,100426.81
2022-08-07T01:39:41.412Z,100427.38
2022-08-07T01:42:38.597Z,100422.81
2022-08-07T01:45:09.768Z,100424.13
2022-08-07T01:48:20.924Z,100416.75
2022-08-07T01:50:31.160Z,100427.63
2022-08-07T01:53:00.325Z,100427.97
2022-08-07T01:55:33.498Z,100432.78
2022-08-07T01:58:27.399Z,100434.00
2022-08-07T02:01:10.002Z,100437.69
2022-08-07T02:03:56.513Z,100424.13
2022-08-07T02:06:31.614Z,100433.84
2022-08-07T02:09:05.897Z,100442.50
2022-08-07T02:12:04.110Z,100438.75
2022-08-07T02:14:36.659Z,100424.84
2022-08-07T02:17:16.546Z,100430.47
2022-08-07T02:20:07.075Z,100432.88
2022-08-07T02:22:41.088Z,100427.13
2022-08-07T02:25:13.773Z,100428.28
2022-08-07T02:27:51.234Z,100437.09
2022-08-07T02:30:20.746Z,100428.53
2022-08-07T02:33:00.761Z,100432.88
2022-08-07T02:36:30.362Z,100430.66
2022-08-07T02:38:32.237Z,100430.41
2022-08-07T02:41:03.715Z,100433.75
2022-08-07T02:43:35.411Z,100435.72
2022-08-07T02:46:07.285Z,100428.16
2022-08-07T02:48:35.678Z,100430.66
2022-08-07T02:51:28.761Z,100423.84
2022-08-07T02:53:58.166Z,100427.47
2022-08-07T02:56:29.574Z,100436.56
2022-08-07T02:59:02.023Z,100430.47
2022-08-07T03:01:36.322Z,100432.78
2022-08-07T03:04:13.022Z,100429.44
2022-08-07T03:06:44.654Z,100430.91
2022-08-07T03:09:14.024Z,100426.09
2022-08-07T03:11:52.575Z,100423.50
2022-08-07T03:14:28.131Z,100429.44
2022-08-07T03:16:56.841Z,100423.41
2022-08-07T03:19:24.955Z,100426.09
2022-08-07T03:21:56.983Z,100421.84
2022-08-07T03:24:27.270Z,100420.28
2022-08-07T03:27:02.972Z,100421.84
2022-08-07T03:29:50.564Z,100409.19
2022-08-07T03:32:28.403Z,100416.59
2022-08-07T03:35:16.834Z,100413.66
2022-08-07T03:37:55.249Z,100405.34
2022-08-07T03:40:30.778Z,100412.34
2022-08-07T03:43:00.627Z,100407.50
2022-08-07T03:45:29.484Z,100406.41
2022-08-07T03:48:02.321Z,100408.47
2022-08-07T03:50:31.183Z,100409.22
2022-08-07T03:53:02.762Z,100405.44
2022-08-07T03:55:53.160Z,100407.50
2022-08-07T03:58:33.287Z,100411.28
2022-08-07T04:01:03.902Z,100410.78
2022-08-07T04:03:49.559Z,100398.81
2022-08-07T04:06:37.534Z,100406.31
2022-08-07T04:09:08.523Z,100406.66
2022-08-07T04:12:27.144Z,100412.00
2022-08-07T04:14:43.682Z,100406.31
2022-08-07T04:17:20.066Z,100408.03
2022-08-07T04:19:51.860Z,100403.94
2022-08-07T04:22:22.946Z,100404.75
2022-08-07T04:24:50.393Z,100414.91
2022-08-07T04:27:25.170Z,100414.66
2022-08-07T04:30:02.433Z,100418.53
2022-08-07T04:32:44.650Z,100427.94
2022-08-07T04:35:12.622Z,100430.59
2022-08-07T04:37:52.892Z,100433.59
2022-08-07T04:40:30.165Z,100433.13
2022-08-07T04:43:01.599Z,100433.97
2022-08-07T04:46:01.693Z,100437.94
2022-08-07T04:48:44.711Z,100436.84
2022-08-07T04:51:27.606Z,100432.41
2022-08-07T04:54:06.994Z,100437.19
2022-08-07T04:58:14.295Z,100439.97
2022-08-07T05:00:12.066Z,100438.66
2022-08-07T05:02:30.041Z,100441.31
2022-08-07T05:05:11.888Z,100454.34
2022-08-07T05:08:18.027Z,100444.22
2022-08-07T05:11:10.913Z,100441.47
2022-08-07T05:14:54.136Z,100444.44
2022-08-07T05:16:47.515Z,100438.69
2022-08-07T05:19:25.692Z,100437.34
2022-08-07T05:22:04.611Z,100447.38
2022-08-07T05:24:40.553Z,100447.25
2022-08-07T05:27:21.786Z,100445.19
2022-08-07T05:29:59.571Z,100448.94
2022-08-07T05:32:27.157Z,100452.44
2022-08-07T05:34:56.596Z,100454.03
2022-08-07T05:37:25.326Z,100462.19
2022-08-07T05:40:12.751Z,100454.88
2022-08-07T05:42:56.092Z,100471.50
2022-08-07T05:45:46.260Z,100464.03
2022-08-07T05:48:13.044Z,100469.84
2022-08-07T05:50:44.549Z,100480.34
2022-08-07T05:54:12.901Z,100464.91
2022-08-07T05:56:05.953Z,100466.91
2022-08-07T05:58:39.064Z,100468.81
2022-08-07T06:01:11.014Z,100468.66
2022-08-07T06:03:57.127Z,100475.16
2022-08-07T06:06:29.878Z,100471.72
2022-08-07T06:09:04.493Z,100471.00
2022-08-07T06:11:34.209Z,100472.06
2022-08-07T06:14:11.851Z,100473.72
2022-08-07T06:16:45.693Z,100480.22
2022-08-07T06:19:47.543Z,100483.97
2022-08-07T06:22:14.585Z,100482.00
2022-08-07T06:24:56.881Z,100485.06
2022-08-07T06:28:00.609Z,100476.47
2022-08-07T06:30:31.927Z,100475.81
2022-08-07T06:33:00.089Z,100463.09
2022-08-07T06:35:30.576Z,100473.78
2022-08-07T06:38:09.996Z,100469.91
2022-08-07T06:40:50.323Z,100467.97
2022-08-07T06:43:23.440Z,100466.16
2022-08-07T06:46:06.444Z,100467.22
2022-08-07T06:48:42.057Z,100468.03
2022-08-07T06:51:31.047Z,100463.00
2022-08-07T06:55:30.062Z,100461.47
2022-08-07T06:56:52.373Z,100460.47
2022-08-07T07:00:12.872Z,100452.91
2022-08-07T07:02:49.052Z,100453.88
2022-08-07T07:05:09.694Z,100457.53
2022-08-07T07:07:59.287Z,100454.88
2022-08-07T07:10:33.302Z,100448.13
2022-08-07T07:13:16.201Z,100454.00
2022-08-07T07:16:07.678Z,100445.44
2022-08-07T07:18:48.760Z,100446.81
2022-08-07T07:21:19.566Z,100444.72
2022-08-07T07:24:11.242Z,100442.72
2022-08-07T07:26:37.713Z,100439.88
2022-08-07T07:29:55.964Z,100428.47
2022-08-07T07:31:59.413Z,100439.28
2022-08-07T07:34:31.902Z,100438.97
2022-08-07T07:37:14.771Z,100436.81
2022-08-07T07:39:54.502Z,100428.88
2022-08-07T07:42:33.093Z,100429.66
2022-08-07T07:45:01.991Z,100423.13
2022-08-07T07:47:30.140Z,100424.91
2022-08-07T07:50:33.944Z,100433.88
2022-08-07T07:52:58.985Z,100422.56
2022-08-07T07:55:37.662Z,100424.63
2022-08-07T07:58:13.435Z,100414.53
2022-08-07T08:00:42.506Z,100417.16
2022-08-07T08:04:05.942Z,100407.38
2022-08-07T08:06:05.717Z,100403.25
2022-08-07T08:08:37.007Z,100409.06
2022-08-07T08:11:13.606Z,100408.34
2022-08-07T08:13:53.305Z,100405.19
2022-08-07T08:16:25.067Z,100400.72
2022-08-07T08:20:16.198Z,100403.66
2022-08-07T08:22:17.499Z,100396.31
2022-08-07T08:25:24.876Z,100398.91
2022-08-07T08:27:56.543Z,100397.63
2022-08-07T08:30:29.567Z,100394.69
2022-08-07T08:33:01.818Z,100393.25
2022-08-07T08:35:43.028Z,100387.41
2022-08-07T08:38:20.485Z,100388.28
2022-08-07T08:40:57.694Z,100391.00
2022-08-07T08:43:42.311Z,100387.00
2022-08-07T08:46:25.333Z,100385.34
2022-08-07T08:49:12.579Z,100379.69
2022-08-07T08:52:14.513Z,100372.47
2022-08-07T08:54:51.414Z,100367.47
2022-08-07T08:57:30.379Z,100375.53
2022-08-07T09:00:11.040Z,100372.34
2022-08-07T09:02:49.592Z,100366.66
2022-08-07T09:05:37.090Z,100352.88
2022-08-07T09:08:29.323Z,100351.84
2022-08-07T09:11:05.159Z,100347.13
2022-08-07T09:13:40.616Z,100347.13
2022-08-07T09:16:22.504Z,100352.44
2022-08-07T09:19:03.515Z,100355.66
2022-08-07T09:22:09.604Z,100348.38
2022-08-07T09:25:00.709Z,100342.97
2022-08-07T09:28:00.643Z,100350.31
2022-08-07T09:30:37.745Z,100340.56
2022-08-07T09:33:24.207Z,100328.03
2022-08-07T09:36:11.846Z,100334.97
2022-08-07T09:39:18.013Z,100334.75
2022-08-07T09:42:33.760Z,100334.38
2022-08-07T09:47:23.712Z,100326.97
2022-08-07T09:48:55.849Z,100328.28
2022-08-07T09:52:16.613Z,100318.56
2022-08-07T09:54:54.301Z,100313.59
2022-08-07T09:58:03.098Z,100306.56
2022-08-07T10:00:50.640Z,100304.06
2022-08-07T10:04:05.008Z,100307.75
2022-08-07T10:07:24.358Z,100296.84
2022-08-07T10:10:22.893Z,100284.13
2022-08-07T10:12:56.145Z,100287.84
2022-08-07T10:15:44.765Z,100286.72
2022-08-07T10:18:20.358Z,100277.69
2022-08-07T10:21:50.794Z,100270.75
2022-08-07T10:24:45.909Z,100266.72
2022-08-07T10:27:23.141Z,100261.31
2022-08-07T10:30:12.379Z,100257.25
2022-08-07T10:33:15.371Z,100252.16
2022-08-07T10:36:31.055Z,100250.50
2022-08-07T10:39:41.464Z,100251.25
2022-08-07T10:42:31.097Z,100253.34
2022-08-07T10:45:17.294Z,100245.91
2022-08-07T10:48:04.385Z,100239.56
2022-08-07T10:50:50.207Z,100246.09
2022-08-07T10:53:44.165Z,100241.78
2022-08-07T10:56:45.054Z,100244.34
2022-08-07T10:59:37.296Z,100235.97
2022-08-07T11:02:37.936Z,100236.69
2022-08-07T11:05:49.136Z,100229.94
2022-08-07T11:08:43.428Z,100228.16
2022-08-07T11:11:35.673Z,100227.84
2022-08-07T11:14:45.905Z,100227.22
2022-08-07T11:17:42.589Z,100217.63
2022-08-07T11:20:14.233Z,100220.38
2022-08-07T11:22:55.402Z,100218.13
2022-08-07T11:25:36.132Z,100216.88
2022-08-07T11:28:36.445Z,100207.66
2022-08-07T11:31:13.217Z,100209.38
2022-08-07T11:33:53.925Z,100196.91
2022-08-07T11:36:49.624Z,100195.66
2022-08-07T11:39:59.780Z,100189.44
2022-08-07T11:42:49.375Z,100191.31
2022-08-07T11:45:54.241Z,100185.69
2022-08-07T11:49:04.376Z,100184.84
2022-08-07T11:52:03.244Z,100189.25
2022-08-07T11:55:07.382Z,100176.97
2022-08-07T11:57:59.886Z,100180.25
2022-08-07T12:01:05.039Z,100173.41
2022-08-07T12:03:57.492Z,100172.34
2022-08-07T12:06:50.892Z,100166.28
2022-08-07T12:09:35.202Z,100173.59
2022-08-07T12:12:09.133Z,100173.38
2022-08-07T12:15:01.946Z,100175.28
2022-08-07T12:17:59.856Z,100170.91
2022-08-07T12:20:37.997Z,100172.75
2022-08-07T12:24:07.673Z,100174.41
2022-08-07T12:26:42.033Z,100171.94
2022-08-07T12:29:20.300Z,100168.81
2022-08-07T12:32:22.621Z,100162.78
2022-08-07T12:34:56.247Z,100161.09
2022-08-07T12:37:28.617Z,100160.84
2022-08-07T12:40:44.033Z,100153.53
2022-08-07T12:43:09.365Z,100156.63
2022-08-07T12:45:55.105Z,100156.81
2022-08-07T12:48:41.649Z,100154.53
2022-08-07T12:51:24.212Z,100151.59
2022-08-07T12:54:36.921Z,100159.97
2022-08-07T12:57:09.604Z,100156.41
2022-08-07T12:59:54.660Z,100149.34
2022-08-07T13:02:32.983Z,100149.31
2022-08-07T13:05:14.971Z,100144.34
2022-08-07T13:08:19.253Z,100143.88
2022-08-07T13:10:52.638Z,100142.22
2022-08-07T13:13:48.682Z,100144.75
2022-08-07T13:16:40.859Z,100138.69
2022-08-07T13:19:46.152Z,100138.69
2022-08-07T13:22:52.610Z,100134.31
2022-08-07T13:25:29.925Z,100138.50
2022-08-07T13:28:13.809Z,100130.63
2022-08-07T13:30:53.612Z,100130.19
2022-08-07T13:34:29.942Z,100128.94
2022-08-07T13:36:43.206Z,100122.91
2022-08-07T13:40:36.735Z,100115.78
2022-08-07T13:42:46.436Z,100115.78
2022-08-07T13:46:06.527Z,100116.81
2022-08-07T13:48:06.345Z,100119.56
2022-08-07T13:50:45.131Z,100110.63
2022-08-07T13:54:00.716Z,100119.81
2022-08-07T13:56:40.697Z,100111.72
2022-08-07T13:59:12.603Z,100104.44
2022-08-07T14:02:03.840Z,100107.72
2022-08-07T14:04:38.828Z,100104.19
2022-08-07T14:07:17.417Z,100102.56
2022-08-07T14:10:02.928Z,100109.00
2022-08-07T14:12:36.199Z,100098.00
2022-08-07T14:15:26.828Z,100091.13
2022-08-07T14:18:27.964Z,100092.78
2022-08-07T14:20:54.671Z,100094.69
2022-08-07T14:23:58.565Z,100093.41
2022-08-07T14:26:28.325Z,100087.63
2022-08-07T14:29:08.517Z,100079.66
2022-08-07T14:31:56.586Z,100073.44
2022-08-07T14:34:29.985Z,100075.13
2022-08-07T14:37:01.903Z,100074.91
2022-08-07T14:40:17.300Z,100071.56
2022-08-07T14:42:24.874Z,100069.09
2022-08-07T14:44:59.912Z,100065.34
2022-08-07T14:47:44.789Z,100063.69
2022-08-07T14:50:18.994Z,100054.94
2022-08-07T14:52:50.426Z,100051.00
2022-08-07T14:55:19.733Z,100051.59
2022-08-07T15:00:39.340Z,100051.41
2022-08-07T15:03:18.772Z,100053.66
2022-08-07T15:05:55.275Z,100044.47
2022-08-07T15:08:35.166Z,100049.06
2022-08-07T15:11:50.790Z,100044.03
2022-08-07T15:14:11.190Z,100045.69
2022-08-07T15:16:54.876Z,100046.53
2022-08-07T15:20:23.643Z,100045.25
2022-08-07T15:28:33.092Z,100037.13
2022-08-07T15:33:36.202Z,100037.75
2022-08-07T15:38:59.709Z,100035.66
2022-08-07T15:42:46.917Z,100032.34
2022-08-07T15:44:20.802Z,100022.56
2022-08-07T15:46:54.965Z,100021.94
2022-08-07T15:50:06.108Z,100029.41
2022-08-07T15:52:29.995Z,100026.06
2022-08-07T15:55:02.834Z,100012.34
2022-08-07T15:57:47.942Z,100022.31
2022-08-07T16:00:31.258Z,100015.00
2022-08-07T16:03:21.815Z,100007.28
2022-08-07T16:06:04.073Z,100012.06
2022-08-07T16:08:38.313Z,100002.91
2022-08-07T16:11:27.049Z,99998.94
2022-08-07T16:14:17.053Z,99996.03
2022-08-07T16:17:03.000Z,99993.53
2022-08-07T16:20:00.425Z,100003.72
2022-08-07T16:22:55.014Z,99996.84
2022-08-07T16:25:52.578Z,99993.31
2022-08-07T16:30:08.641Z,99990.63
2022-08-07T16:32:07.738Z,99996.41
2022-08-07T16:34:59.137Z,99997.44
2022-08-07T16:38:07.357Z,100001.81
2022-08-07T16:41:02.394Z,99994.75
2022-08-07T16:44:53.741Z,99994.97
2022-08-07T16:47:17.865Z,99999.50
2022-08-07T16:50:38.800Z,99994.09
2022-08-07T16:53:57.197Z,99995.34
2022-08-07T16:56:23.550Z,100000.97
2022-08-07T16:59:11.429Z,99997.00
2022-08-07T17:01:56.660Z,99993.25
2022-08-07T17:04:57.974Z,99995.97
2022-08-07T17:07:55.367Z,99988.88
2022-08-07T17:10:54.217Z,99981.00
2022-08-07T17:13:24.240Z,99985.78
2022-08-07T17:16:16.866Z,99988.00
2022-08-07T17:18:51.670Z,99990.09
2022-08-07T17:21:28.880Z,99991.31
2022-08-07T17:24:42.652Z,99989.03
2022-08-07T17:27:19.638Z,99982.38
2022-08-07T17:30:14.047Z,99994.44
2022-08-07T17:34:09.855Z,99998.75
2022-08-07T17:35:55.757Z,99998.13
2022-08-07T17:38:33.836Z,99995.81
2022-08-07T17:42:04.500Z,99999.53
2022-08-07T17:44:33.273Z,99990.00
2022-08-07T17:47:08.462Z,99986.84
2022-08-07T17:49:56.027Z,99986.84
2022-08-07T17:52:35.148Z,99989.97
2022-08-07T17:56:00.403Z,99990.31
2022-08-07T17:58:39.921Z,99996.09
2022-08-07T18:01:43.939Z,99992.13
2022-08-07T18:04:21.238Z,99995.03
2022-08-07T18:07:20.747Z,100001.66
2022-08-07T18:10:06.062Z,99999.34
2022-08-07T18:12:52.376Z,100001.41
2022-08-07T18:15:33.149Z,99993.91
2022-08-07T18:18:39.634Z,100005.50
2022-08-07T18:21:42.023Z,100013.38
2022-08-07T18:24:06.997Z,100006.31
2022-08-07T18:27:17.475Z,100006.31
2022-08-07T18:30:07.865Z,100009.41
2022-08-07T18:33:10.763Z,100011.44
2022-08-07T18:36:02.542Z,100017.00
2022-08-07T18:38:55.882Z,100023.78
2022-08-07T18:41:44.909Z,100017.91
2022-08-07T18:44:45.993Z,100036.22
2022-08-07T18:47:44.719Z,100029.41
2022-08-07T18:50:45.389Z,100035.03
2022-08-07T18:53:36.484Z,100033.56
2022-08-07T18:56:30.704Z,100043.38
2022-08-07T18:59:47.539Z,100055.09
2022-08-07T19:02:36.474Z,100041.78
2022-08-07T19:05:22.690Z,100050.34
2022-08-07T19:07:57.413Z,100063.06
2022-08-07T19:10:49.643Z,100059.28
2022-08-07T19:13:45.901Z,100062.88
2022-08-07T19:17:04.125Z,100061.03
2022-08-07T19:19:49.213Z,100071.03
2022-08-07T19:22:34.058Z,100071.97
2022-08-07T19:25:05.551Z,100071.84
2022-08-07T19:28:56.699Z,100076.13
2022-08-07T19:31:03.913Z,100067.41
2022-08-07T19:33:15.681Z,100071.56
2022-08-07T19:35:53.625Z,100072.09
2022-08-07T19:38:21.577Z,100083.97
2022-08-07T19:40:51.841Z,100076.28
2022-08-07T19:43:48.592Z,100080.53
2022-08-07T19:46:10.922Z,100081.06
2022-08-07T19:48:43.826Z,100085.53
2022-08-07T19:51:19.454Z,100080.84
2022-08-07T19:54:29.787Z,100090.66
2022-08-07T19:57:51.140Z,100090.56
2022-08-07T19:59:39.949Z,100100.44
2022-08-07T20:02:19.116Z,100101.31
2022-08-07T20:04:53.536Z,100106.75
2022-08-07T20:07:47.445Z,100106.91
2022-08-07T20:10:37.289Z,100108.66
2022-08-07T20:13:23.229Z,100099.56
2022-08-07T20:15:57.670Z,100099.56
2022-08-07T20:18:32.507Z,100099.38
2022-08-07T20:21:02.329Z,100100.41
2022-08-07T20:23:43.302Z,100099.66
2022-08-07T20:26:32.187Z,100103.91
2022-08-07T20:29:10.516Z,100091.53
2022-08-07T20:31:44.925Z,100106.19
2022-08-07T20:34:15.018Z,100116.56
2022-08-07T20:36:43.922Z,100114.44
2022-08-07T20:40:01.066Z,100113.78
2022-08-07T20:42:14.310Z,100116.16
2022-08-07T20:44:49.533Z,100118.19
2022-08-07T20:47:25.070Z,100118.00
2022-08-07T20:49:57.994Z,100115.66
2022-08-07T20:52:51.578Z,100120.22
2022-08-07T20:55:23.770Z,100119.38
2022-08-07T20:58:02.454Z,100128.28
2022-08-07T21:00:42.772Z,100126.59
2022-08-07T21:03:15.974Z,100129.63
2022-08-07T21:05:54.406Z,100135.84
2022-08-07T21:08:39.237Z,100140.25
2022-08-07T21:11:11.958Z,100139.88
2022-08-07T21:13:43.632Z,100143.91
2022-08-07T21:16:30.188Z,100146.78
2022-08-07T21:18:59.326Z,100148.47
2022-08-07T21:21:30.790Z,100150.13
2022-08-07T21:24:10.770Z,100162.34
2022-08-07T21:27:25.617Z,100154.97
2022-08-07T21:30:08.653Z,100156.50
2022-08-07T21:32:50.939Z,100158.59
2022-08-07T21:35:34.549Z,100158.59
2022-08-07T21:38:27.918Z,100156.94
2022-08-07T21:41:11.026Z,100155.47
2022-08-07T21:43:55.930Z,100159.97
2022-08-07T21:46:35.981Z,100161.63
2022-08-07T21:49:26.848Z,100158.56
2022-08-07T21:52:11.497Z,100165.59
2022-08-07T21:55:10.813Z,100169.59
2022-08-07T21:58:06.700Z,100165.84
2022-08-07T22:00:33.514Z,100169.09
2022-08-07T22:03:16.715Z,100164.34
2022-08-07T22:05:55.539Z,100173.94
2022-08-07T22:08:26.879Z,100166.56
2022-08-07T22:10:59.735Z,100160.88
2022-08-07T22:13:52.859Z,100173.00
2022-08-07T22:16:44.520Z,100169.34
2022-08-07T22:19:20.015Z,100168.50
2022-08-07T22:22:21.268Z,100166.38
2022-08-07T22:25:02.714Z,100171.72
2022-08-07T22:28:07.753Z,100180.13
2022-08-07T22:30:35.822Z,100181.59
2022-08-07T22:33:09.590Z,100188.13
2022-08-07T22:35:54.409Z,100181.00
2022-08-07T22:38:48.102Z,100185.22
2022-08-07T22:41:29.108Z,100181.41
2022-08-07T22:44:18.591Z,100184.69
2022-08-07T22:47:09.244Z,100194.34
2022-08-07T22:49:55.954Z,100188.19
2022-08-07T22:52:57.502Z,100183.22
2022-08-07T22:55:49.281Z,100178.94
2022-08-07T22:58:37.586Z,100179.09
2022-08-07T23:01:27.395Z,100181.50
2022-08-07T23:04:35.727Z,100183.88
2022-08-07T23:07:48.308Z,100186.16
2022-08-07T23:10:36.286Z,100186.47
2022-08-07T23:13:29.305Z,100186.84
2022-08-07T23:16:48.539Z,100198.09
2022-08-07T23:19:51.515Z,100194.78
2022-08-07T23:22:49.206Z,100196.97
2022-08-07T23:25:56.793Z,100198.28
2022-08-07T23:28:57.390Z,100193.91
2022-08-07T23:34:21.735Z,100190.59
2022-08-07T23:34:49.770Z,100196.59
2022-08-07T23:37:25.310Z,100188.00
2022-08-07T23:40:34.842Z,100194.09
2022-08-07T23:43:38.021Z,100191.72
2022-08-07T23:46:39.422Z,100187.53
2022-08-07T23:49:49.911Z,100180.44
2022-08-07T23:53:01.918Z,100189.81
2022-08-07T23:55:53.347Z,100178.03
2022-08-07T23:58:38.917Z,100184.94
